Time;durP1;ratioP1;P1;durP2;ratioP2;P2;SDS_P1;SDS_P2;PMS_P1;PMS_P2;Temp;Humidity;BMP_temperature;BMP_pressure;BME280_temperature;BME280_humidity;BME280_pressure;Samples;Min_cycle;Max_cycle;Signal;HPM_P1;HPM_P2
2022/04/18 00:00:45;;;;;;;6.95;5;;;;;;;0.5;45.19238;95472.5;;;;
2022/04/18 00:01:46;;;;;;;6.95;5;;;;;;;0.5;45.19238;95472.5;;;;
2022/04/18 00:02:46;;;;;;;6.95;5;;;;;;;0.5;45.19238;95472.5;;;;
2022/04/18 00:03:47;;;;;;;6.95;5;;;;;;;0.5;45.19238;95472.5;;;;
2022/04/18 00:04:47;;;;;;;6.95;5;;;;;;;0.5;45.19238;95472.5;;;;
2022/04/18 00:05:48;;;;;;;6.95;5;;;;;;;0.5;45.19238;95472.5;;;;
2022/04/18 00:06:49;;;;;;;6.95;5;;;;;;;0.5;45.19238;95472.5;;;;
2022/04/18 00:07:49;;;;;;;6.95;5;;;;;;;0.5;45.19238;95472.5;;;;
2022/04/18 00:08:50;;;;;;;6.95;5;;;;;;;0.5;45.19238;95472.5;;;;
2022/04/18 00:09:50;;;;;;;6.95;5;;;;;;;0.5;45.19238;95472.5;;;;
2022/04/18 00:10:51;;;;;;;7.300001;5.1;;;;;;;0.39;45.47559;95468.07;;;;
2022/04/18 00:11:51;;;;;;;7.300001;5.1;;;;;;;0.39;45.47559;95468.07;;;;
2022/04/18 00:12:52;;;;;;;7.300001;5.1;;;;;;;0.39;45.47559;95468.07;;;;
2022/04/18 00:13:52;;;;;;;7.300001;5.1;;;;;;;0.39;45.47559;95468.07;;;;
2022/04/18 00:14:53;;;;;;;7.300001;5.1;;;;;;;0.39;45.47559;95468.07;;;;
2022/04/18 00:15:53;;;;;;;7.300001;5.1;;;;;;;0.39;45.47559;95468.07;;;;
2022/04/18 00:16:54;;;;;;;7.300001;5.1;;;;;;;0.39;45.47559;95468.07;;;;
2022/04/18 00:17:54;;;;;;;7.300001;5.1;;;;;;;0.39;45.47559;95468.07;;;;
2022/04/18 00:18:55;;;;;;;7.300001;5.1;;;;;;;0.39;45.47559;95468.07;;;;
2022/04/18 00:19:56;;;;;;;7.300001;5.1;;;;;;;0.39;45.47559;95468.07;;;;
2022/04/18 00:20:56;;;;;;;7.300001;5.1;;;;;;;0.39;45.47559;95468.07;;;;
2022/04/18 00:21:59;;;;;;;6.55;5.100001;;;;;;;0.35;45.64941;95457.03;;;;
2022/04/18 00:22:59;;;;;;;6.55;5.100001;;;;;;;0.35;45.64941;95457.03;;;;
2022/04/18 00:24:00;;;;;;;6.55;5.100001;;;;;;;0.35;45.64941;95457.03;;;;
2022/04/18 00:25:00;;;;;;;6.55;5.100001;;;;;;;0.35;45.64941;95457.03;;;;
2022/04/18 00:26:01;;;;;;;6.55;5.100001;;;;;;;0.35;45.64941;95457.03;;;;
2022/04/18 00:27:01;;;;;;;6.55;5.100001;;;;;;;0.35;45.64941;95457.03;;;;
2022/04/18 00:28:02;;;;;;;6.55;5.100001;;;;;;;0.35;45.64941;95457.03;;;;
2022/04/18 00:29:03;;;;;;;6.55;5.100001;;;;;;;0.35;45.64941;95457.03;;;;
2022/04/18 00:30:03;;;;;;;6.55;5.100001;;;;;;;0.35;45.64941;95457.03;;;;
2022/04/18 00:31:05;;;;;;;6.55;5.100001;;;;;;;0.35;45.64941;95457.03;;;;
2022/04/18 00:32:05;;;;;;;6.55;5.100001;;;;;;;0.35;45.64941;95457.03;;;;
2022/04/18 00:33:09;;;;;;;6.7;4.85;;;;;;;0.26;45.83105;95453.99;;;;
2022/04/18 00:34:09;;;;;;;6.7;4.85;;;;;;;0.26;45.83105;95453.99;;;;
2022/04/18 00:35:10;;;;;;;6.7;4.85;;;;;;;0.26;45.83105;95453.99;;;;
2022/04/18 00:36:10;;;;;;;6.7;4.85;;;;;;;0.26;45.83105;95453.99;;;;
2022/04/18 00:37:11;;;;;;;6.7;4.85;;;;;;;0.26;45.83105;95453.99;;;;
2022/04/18 00:38:11;;;;;;;6.7;4.85;;;;;;;0.26;45.83105;95453.99;;;;
2022/04/18 00:39:12;;;;;;;6.7;4.85;;;;;;;0.26;45.83105;95453.99;;;;
2022/04/18 00:40:12;;;;;;;6.7;4.85;;;;;;;0.26;45.83105;95453.99;;;;
2022/04/18 00:41:13;;;;;;;6.7;4.85;;;;;;;0.26;45.83105;95453.99;;;;
2022/04/18 00:42:13;;;;;;;6.7;4.85;;;;;;;0.26;45.83105;95453.99;;;;
2022/04/18 00:43:14;;;;;;;6.5;4.7;;;;;;;0.11;46.09863;95440.23;;;;
2022/04/18 00:44:14;;;;;;;6.5;4.7;;;;;;;0.11;46.09863;95440.23;;;;
2022/04/18 00:45:15;;;;;;;6.5;4.7;;;;;;;0.11;46.09863;95440.23;;;;
2022/04/18 00:46:15;;;;;;;6.5;4.7;;;;;;;0.11;46.09863;95440.23;;;;
2022/04/18 00:47:17;;;;;;;6.5;4.7;;;;;;;0.11;46.09863;95440.23;;;;
2022/04/18 00:48:18;;;;;;;6.5;4.7;;;;;;;0.11;46.09863;95440.23;;;;
2022/04/18 00:49:18;;;;;;;6.5;4.7;;;;;;;0.11;46.09863;95440.23;;;;
2022/04/18 00:50:19;;;;;;;6.5;4.7;;;;;;;0.11;46.09863;95440.23;;;;
2022/04/18 00:51:20;;;;;;;6.5;4.7;;;;;;;0.11;46.09863;95440.23;;;;
2022/04/18 00:52:23;;;;;;;6.5;4.7;;;;;;;0.11;46.09863;95440.23;;;;
2022/04/18 00:53:25;;;;;;;6.5;4.7;;;;;;;0.11;46.09863;95440.23;;;;
2022/04/18 00:54:25;;;;;;;7.199999;5.25;;;;;;;0.07;46.30469;95434.95;;;;
2022/04/18 00:55:26;;;;;;;7.199999;5.25;;;;;;;0.07;46.30469;95434.95;;;;
2022/04/18 00:56:28;;;;;;;7.199999;5.25;;;;;;;0.07;46.30469;95434.95;;;;
2022/04/18 00:57:29;;;;;;;7.199999;5.25;;;;;;;0.07;46.30469;95434.95;;;;
2022/04/18 00:58:31;;;;;;;7.199999;5.25;;;;;;;0.07;46.30469;95434.95;;;;
2022/04/18 00:59:33;;;;;;;7.199999;5.25;;;;;;;0.07;46.30469;95434.95;;;;
2022/04/18 01:00:33;;;;;;;7.199999;5.25;;;;;;;0.07;46.30469;95434.95;;;;
2022/04/18 01:01:34;;;;;;;7.199999;5.25;;;;;;;0.07;46.30469;95434.95;;;;
2022/04/18 01:02:36;;;;;;;7.199999;5.25;;;;;;;0.07;46.30469;95434.95;;;;
2022/04/18 01:03:37;;;;;;;7.199999;5.25;;;;;;;0.07;46.30469;95434.95;;;;
2022/04/18 01:04:37;;;;;;;6.449999;4.400001;;;;;;;0.03;46.45801;95430.06;;;;
2022/04/18 01:05:38;;;;;;;6.449999;4.400001;;;;;;;0.03;46.45801;95430.06;;;;
2022/04/18 01:06:38;;;;;;;6.449999;4.400001;;;;;;;0.03;46.45801;95430.06;;;;
2022/04/18 01:07:40;;;;;;;6.449999;4.400001;;;;;;;0.03;46.45801;95430.06;;;;
2022/04/18 01:08:40;;;;;;;6.449999;4.400001;;;;;;;0.03;46.45801;95430.06;;;;
2022/04/18 01:09:42;;;;;;;6.449999;4.400001;;;;;;;0.03;46.45801;95430.06;;;;
2022/04/18 01:10:43;;;;;;;6.449999;4.400001;;;;;;;0.03;46.45801;95430.06;;;;
2022/04/18 01:11:44;;;;;;;6.449999;4.400001;;;;;;;0.03;46.45801;95430.06;;;;
2022/04/18 01:12:45;;;;;;;6.449999;4.400001;;;;;;;0.03;46.45801;95430.06;;;;
2022/04/18 01:13:45;;;;;;;6.449999;4.400001;;;;;;;0.03;46.45801;95430.06;;;;
2022/04/18 01:14:47;;;;;;;6.449999;4.400001;;;;;;;0.03;46.45801;95430.06;;;;
2022/04/18 01:15:48;;;;;;;6;3.85;;;;;;;-0.04;46.68262;95422.86;;;;
2022/04/18 01:16:51;;;;;;;6;3.85;;;;;;;-0.04;46.68262;95422.86;;;;
2022/04/18 01:17:51;;;;;;;6;3.85;;;;;;;-0.04;46.68262;95422.86;;;;
2022/04/18 01:18:52;;;;;;;6;3.85;;;;;;;-0.04;46.68262;95422.86;;;;
2022/04/18 01:19:52;;;;;;;6;3.85;;;;;;;-0.04;46.68262;95422.86;;;;
2022/04/18 01:20:53;;;;;;;6;3.85;;;;;;;-0.04;46.68262;95422.86;;;;
2022/04/18 01:21:54;;;;;;;6;3.85;;;;;;;-0.04;46.68262;95422.86;;;;
2022/04/18 01:22:54;;;;;;;6;3.85;;;;;;;-0.04;46.68262;95422.86;;;;
2022/04/18 01:23:55;;;;;;;6;3.85;;;;;;;-0.04;46.68262;95422.86;;;;
2022/04/18 01:30:08;;;;;;;4.75;3.900001;;;;;;;-0.14;46.89258;95424.01;;;;
2022/04/18 01:31:09;;;;;;;4.75;3.900001;;;;;;;-0.14;46.89258;95424.01;;;;
2022/04/18 01:32:10;;;;;;;4.75;3.900001;;;;;;;-0.14;46.89258;95424.01;;;;
2022/04/18 01:33:10;;;;;;;4.75;3.900001;;;;;;;-0.14;46.89258;95424.01;;;;
2022/04/18 01:34:10;;;;;;;4.75;3.900001;;;;;;;-0.14;46.89258;95424.01;;;;
2022/04/18 01:35:11;;;;;;;4.75;3.900001;;;;;;;-0.14;46.89258;95424.01;;;;
2022/04/18 01:36:12;;;;;;;4.75;3.900001;;;;;;;-0.14;46.89258;95424.01;;;;
2022/04/18 01:37:12;;;;;;;5.4;4.199999;;;;;;;-0.26;47.13184;95402.31;;;;
2022/04/18 01:38:12;;;;;;;5.4;4.199999;;;;;;;-0.26;47.13184;95402.31;;;;
2022/04/18 01:39:13;;;;;;;5.4;4.199999;;;;;;;-0.26;47.13184;95402.31;;;;
2022/04/18 01:40:14;;;;;;;5.4;4.199999;;;;;;;-0.26;47.13184;95402.31;;;;
2022/04/18 01:41:14;;;;;;;5.4;4.199999;;;;;;;-0.26;47.13184;95402.31;;;;
2022/04/18 01:42:15;;;;;;;5.4;4.199999;;;;;;;-0.26;47.13184;95402.31;;;;
2022/04/18 01:43:16;;;;;;;5.4;4.199999;;;;;;;-0.26;47.13184;95402.31;;;;
2022/04/18 01:44:17;;;;;;;5.4;4.199999;;;;;;;-0.26;47.13184;95402.31;;;;
2022/04/18 01:45:17;;;;;;;5.4;4.199999;;;;;;;-0.26;47.13184;95402.31;;;;
2022/04/18 01:46:18;;;;;;;5.4;4.199999;;;;;;;-0.26;47.13184;95402.31;;;;
2022/04/18 01:47:19;;;;;;;5.699999;4.5;;;;;;;-0.35;47.38477;95397.6;;;;
2022/04/18 01:48:20;;;;;;;5.699999;4.5;;;;;;;-0.35;47.38477;95397.6;;;;
2022/04/18 01:49:20;;;;;;;5.699999;4.5;;;;;;;-0.35;47.38477;95397.6;;;;
2022/04/18 01:50:21;;;;;;;5.699999;4.5;;;;;;;-0.35;47.38477;95397.6;;;;
2022/04/18 01:51:21;;;;;;;5.699999;4.5;;;;;;;-0.35;47.38477;95397.6;;;;
2022/04/18 01:52:22;;;;;;;5.699999;4.5;;;;;;;-0.35;47.38477;95397.6;;;;
2022/04/18 01:53:23;;;;;;;5.699999;4.5;;;;;;;-0.35;47.38477;95397.6;;;;
2022/04/18 01:54:23;;;;;;;5.699999;4.5;;;;;;;-0.35;47.38477;95397.6;;;;
2022/04/18 01:55:24;;;;;;;5.699999;4.5;;;;;;;-0.35;47.38477;95397.6;;;;
2022/04/18 01:56:24;;;;;;;5.699999;4.5;;;;;;;-0.35;47.38477;95397.6;;;;
2022/04/18 01:57:25;;;;;;;5.699999;4.5;;;;;;;-0.35;47.38477;95397.6;;;;
2022/04/18 01:58:25;;;;;;;6.7;4.55;;;;;;;-0.4;47.58887;95387.56;;;;
2022/04/18 01:59:26;;;;;;;6.7;4.55;;;;;;;-0.4;47.58887;95387.56;;;;
2022/04/18 02:00:26;;;;;;;6.7;4.55;;;;;;;-0.4;47.58887;95387.56;;;;
2022/04/18 02:01:27;;;;;;;6.7;4.55;;;;;;;-0.4;47.58887;95387.56;;;;
2022/04/18 02:02:28;;;;;;;6.7;4.55;;;;;;;-0.4;47.58887;95387.56;;;;
2022/04/18 02:03:29;;;;;;;6.7;4.55;;;;;;;-0.4;47.58887;95387.56;;;;
2022/04/18 02:04:29;;;;;;;6.7;4.55;;;;;;;-0.4;47.58887;95387.56;;;;
2022/04/18 02:05:31;;;;;;;6.7;4.55;;;;;;;-0.4;47.58887;95387.56;;;;
2022/04/18 02:06:31;;;;;;;6.7;4.55;;;;;;;-0.4;47.58887;95387.56;;;;
2022/04/18 02:07:32;;;;;;;6.7;4.55;;;;;;;-0.4;47.58887;95387.56;;;;
2022/04/18 02:08:32;;;;;;;6.7;4.55;;;;;;;-0.4;47.58887;95387.56;;;;
2022/04/18 02:09:33;;;;;;;5.25;4.35;;;;;;;-0.49;47.76855;95375.23;;;;
2022/04/18 02:10:33;;;;;;;5.25;4.35;;;;;;;-0.49;47.76855;95375.23;;;;
2022/04/18 02:11:34;;;;;;;5.25;4.35;;;;;;;-0.49;47.76855;95375.23;;;;
2022/04/18 02:12:34;;;;;;;5.25;4.35;;;;;;;-0.49;47.76855;95375.23;;;;
2022/04/18 02:13:35;;;;;;;5.25;4.35;;;;;;;-0.49;47.76855;95375.23;;;;
2022/04/18 02:14:35;;;;;;;5.25;4.35;;;;;;;-0.49;47.76855;95375.23;;;;
2022/04/18 02:15:36;;;;;;;5.25;4.35;;;;;;;-0.49;47.76855;95375.23;;;;
2022/04/18 02:16:36;;;;;;;5.25;4.35;;;;;;;-0.49;47.76855;95375.23;;;;
2022/04/18 02:17:37;;;;;;;5.25;4.35;;;;;;;-0.49;47.76855;95375.23;;;;
2022/04/18 02:18:37;;;;;;;5.25;4.35;;;;;;;-0.49;47.76855;95375.23;;;;
2022/04/18 02:19:38;;;;;;;6.7;4.9;;;;;;;-0.58;47.95801;95365.63;;;;
2022/04/18 02:20:38;;;;;;;6.7;4.9;;;;;;;-0.58;47.95801;95365.63;;;;
2022/04/18 02:21:39;;;;;;;6.7;4.9;;;;;;;-0.58;47.95801;95365.63;;;;
2022/04/18 02:22:39;;;;;;;6.7;4.9;;;;;;;-0.58;47.95801;95365.63;;;;
2022/04/18 02:23:40;;;;;;;6.7;4.9;;;;;;;-0.58;47.95801;95365.63;;;;
2022/04/18 02:24:41;;;;;;;6.7;4.9;;;;;;;-0.58;47.95801;95365.63;;;;
2022/04/18 02:25:41;;;;;;;6.7;4.9;;;;;;;-0.58;47.95801;95365.63;;;;
2022/04/18 02:26:42;;;;;;;6.7;4.9;;;;;;;-0.58;47.95801;95365.63;;;;
2022/04/18 02:27:43;;;;;;;6.7;4.9;;;;;;;-0.58;47.95801;95365.63;;;;
2022/04/18 02:28:44;;;;;;;6.7;4.9;;;;;;;-0.58;47.95801;95365.63;;;;
2022/04/18 02:29:44;;;;;;;6.7;4.9;;;;;;;-0.58;47.95801;95365.63;;;;
2022/04/18 02:30:44;;;;;;;6.8;6.1;;;;;;;-0.68;48.17676;95353.92;;;;
2022/04/18 02:32:50;;;;;;;6.8;6.1;;;;;;;-0.68;48.17676;95353.92;;;;
2022/04/18 02:33:50;;;;;;;6.8;6.1;;;;;;;-0.68;48.17676;95353.92;;;;
2022/04/18 02:34:51;;;;;;;6.8;6.1;;;;;;;-0.68;48.17676;95353.92;;;;
2022/04/18 02:35:51;;;;;;;6.8;6.1;;;;;;;-0.68;48.17676;95353.92;;;;
2022/04/18 02:36:52;;;;;;;6.8;6.1;;;;;;;-0.68;48.17676;95353.92;;;;
2022/04/18 02:37:52;;;;;;;6.8;6.1;;;;;;;-0.68;48.17676;95353.92;;;;
2022/04/18 02:38:54;;;;;;;6.8;6.1;;;;;;;-0.68;48.17676;95353.92;;;;
2022/04/18 02:39:59;;;;;;;6.8;6.1;;;;;;;-0.68;48.17676;95353.92;;;;
2022/04/18 02:40:59;;;;;;;7.249999;6.55;;;;;;;-0.67;49.40723;95344.09;;;;
2022/04/18 02:41:59;;;;;;;7.249999;6.55;;;;;;;-0.67;49.40723;95344.09;;;;
2022/04/18 02:43:00;;;;;;;7.249999;6.55;;;;;;;-0.67;49.40723;95344.09;;;;
2022/04/18 02:44:00;;;;;;;7.249999;6.55;;;;;;;-0.67;49.40723;95344.09;;;;
2022/04/18 02:45:01;;;;;;;7.249999;6.55;;;;;;;-0.67;49.40723;95344.09;;;;
2022/04/18 02:46:01;;;;;;;7.249999;6.55;;;;;;;-0.67;49.40723;95344.09;;;;
2022/04/18 02:47:02;;;;;;;7.249999;6.55;;;;;;;-0.67;49.40723;95344.09;;;;
2022/04/18 02:48:03;;;;;;;7.249999;6.55;;;;;;;-0.67;49.40723;95344.09;;;;
2022/04/18 02:49:04;;;;;;;7.249999;6.55;;;;;;;-0.67;49.40723;95344.09;;;;
2022/04/18 02:50:05;;;;;;;7.249999;6.55;;;;;;;-0.67;49.40723;95344.09;;;;
2022/04/18 02:51:07;;;;;;;7.249999;6.55;;;;;;;-0.67;49.40723;95344.09;;;;
2022/04/18 02:52:07;;;;;;;7.35;6.649999;;;;;;;-0.78;50.38086;95336.05;;;;
2022/04/18 02:53:08;;;;;;;7.35;6.649999;;;;;;;-0.78;50.38086;95336.05;;;;
2022/04/18 02:54:08;;;;;;;7.35;6.649999;;;;;;;-0.78;50.38086;95336.05;;;;
2022/04/18 02:55:11;;;;;;;7.35;6.649999;;;;;;;-0.78;50.38086;95336.05;;;;
2022/04/18 02:56:12;;;;;;;7.35;6.649999;;;;;;;-0.78;50.38086;95336.05;;;;
2022/04/18 02:57:12;;;;;;;7.35;6.649999;;;;;;;-0.78;50.38086;95336.05;;;;
2022/04/18 02:58:12;;;;;;;7.35;6.649999;;;;;;;-0.78;50.38086;95336.05;;;;
2022/04/18 02:59:13;;;;;;;7.35;6.649999;;;;;;;-0.78;50.38086;95336.05;;;;
2022/04/18 03:00:13;;;;;;;7.35;6.649999;;;;;;;-0.78;50.38086;95336.05;;;;
2022/04/18 03:01:15;;;;;;;7.35;6.649999;;;;;;;-0.78;50.38086;95336.05;;;;
2022/04/18 03:02:15;;;;;;;7.55;6.799999;;;;;;;-0.88;51.35449;95328.77;;;;
2022/04/18 03:03:16;;;;;;;7.55;6.799999;;;;;;;-0.88;51.35449;95328.77;;;;
2022/04/18 03:04:16;;;;;;;7.55;6.799999;;;;;;;-0.88;51.35449;95328.77;;;;
2022/04/18 03:05:17;;;;;;;7.55;6.799999;;;;;;;-0.88;51.35449;95328.77;;;;
2022/04/18 03:06:17;;;;;;;7.55;6.799999;;;;;;;-0.88;51.35449;95328.77;;;;
2022/04/18 03:07:19;;;;;;;7.55;6.799999;;;;;;;-0.88;51.35449;95328.77;;;;
2022/04/18 03:08:19;;;;;;;7.55;6.799999;;;;;;;-0.88;51.35449;95328.77;;;;
2022/04/18 03:09:20;;;;;;;7.55;6.799999;;;;;;;-0.88;51.35449;95328.77;;;;
2022/04/18 03:11:02;;;;;;;7.55;6.799999;;;;;;;-0.88;51.35449;95328.77;;;;
2022/04/18 03:12:03;;;;;;;7.55;6.799999;;;;;;;-0.88;51.35449;95328.77;;;;
2022/04/18 03:13:04;;;;;;;7.449999;6.75;;;;;;;-0.88;51.97363;95317.75;;;;
2022/04/18 03:14:05;;;;;;;7.449999;6.75;;;;;;;-0.88;51.97363;95317.75;;;;
2022/04/18 03:15:07;;;;;;;7.449999;6.75;;;;;;;-0.88;51.97363;95317.75;;;;
2022/04/18 03:16:08;;;;;;;7.449999;6.75;;;;;;;-0.88;51.97363;95317.75;;;;
2022/04/18 03:17:09;;;;;;;7.449999;6.75;;;;;;;-0.88;51.97363;95317.75;;;;
2022/04/18 03:18:10;;;;;;;7.449999;6.75;;;;;;;-0.88;51.97363;95317.75;;;;
2022/04/18 03:19:10;;;;;;;7.449999;6.75;;;;;;;-0.88;51.97363;95317.75;;;;
2022/04/18 03:20:11;;;;;;;7.449999;6.75;;;;;;;-0.88;51.97363;95317.75;;;;
2022/04/18 03:21:12;;;;;;;7.449999;6.75;;;;;;;-0.88;51.97363;95317.75;;;;
2022/04/18 03:22:13;;;;;;;7.449999;6.75;;;;;;;-0.88;51.97363;95317.75;;;;
2022/04/18 03:23:13;;;;;;;7.449999;6.75;;;;;;;-0.88;51.97363;95317.75;;;;
2022/04/18 03:24:14;;;;;;;7.35;6.55;;;;;;;-0.9;52.59082;95305.06;;;;
2022/04/18 03:25:14;;;;;;;7.35;6.55;;;;;;;-0.9;52.59082;95305.06;;;;
2022/04/18 03:26:15;;;;;;;7.35;6.55;;;;;;;-0.9;52.59082;95305.06;;;;
2022/04/18 03:27:15;;;;;;;7.35;6.55;;;;;;;-0.9;52.59082;95305.06;;;;
2022/04/18 03:28:16;;;;;;;7.35;6.55;;;;;;;-0.9;52.59082;95305.06;;;;
2022/04/18 03:29:17;;;;;;;7.35;6.55;;;;;;;-0.9;52.59082;95305.06;;;;
2022/04/18 03:30:18;;;;;;;7.35;6.55;;;;;;;-0.9;52.59082;95305.06;;;;
2022/04/18 03:31:18;;;;;;;7.35;6.55;;;;;;;-0.9;52.59082;95305.06;;;;
2022/04/18 03:32:19;;;;;;;7.35;6.55;;;;;;;-0.9;52.59082;95305.06;;;;
2022/04/18 03:33:19;;;;;;;7.35;6.55;;;;;;;-0.9;52.59082;95305.06;;;;
2022/04/18 03:34:20;;;;;;;6.849999;6.15;;;;;;;-0.95;53.11816;95303.41;;;;
2022/04/18 03:35:21;;;;;;;6.849999;6.15;;;;;;;-0.95;53.11816;95303.41;;;;
2022/04/18 03:41:34;;;;;;;6.849999;6.15;;;;;;;-0.95;53.11816;95303.41;;;;
2022/04/18 03:42:35;;;;;;;6.849999;6.15;;;;;;;-0.95;53.11816;95303.41;;;;
2022/04/18 03:43:35;;;;;;;6.849999;6.15;;;;;;;-0.95;53.11816;95303.41;;;;
2022/04/18 03:44:36;;;;;;;6.849999;6.15;;;;;;;-0.95;53.11816;95303.41;;;;
2022/04/18 03:45:39;;;;;;;6.249999;5.65;;;;;;;-1;53.61523;95289.42;;;;
2022/04/18 03:46:40;;;;;;;6.249999;5.65;;;;;;;-1;53.61523;95289.42;;;;
2022/04/18 03:47:40;;;;;;;6.249999;5.65;;;;;;;-1;53.61523;95289.42;;;;
2022/04/18 03:48:40;;;;;;;6.249999;5.65;;;;;;;-1;53.61523;95289.42;;;;
2022/04/18 03:49:41;;;;;;;6.249999;5.65;;;;;;;-1;53.61523;95289.42;;;;
2022/04/18 03:50:42;;;;;;;6.249999;5.65;;;;;;;-1;53.61523;95289.42;;;;
2022/04/18 03:51:43;;;;;;;6.249999;5.65;;;;;;;-1;53.61523;95289.42;;;;
2022/04/18 03:52:43;;;;;;;6.249999;5.65;;;;;;;-1;53.61523;95289.42;;;;
2022/04/18 03:53:44;;;;;;;6.249999;5.65;;;;;;;-1;53.61523;95289.42;;;;
2022/04/18 03:54:46;;;;;;;6.249999;5.65;;;;;;;-1;53.61523;95289.42;;;;
2022/04/18 03:55:46;;;;;;;8.1;6.8;;;;;;;-1.02;54.05176;95289.65;;;;
2022/04/18 03:56:47;;;;;;;8.1;6.8;;;;;;;-1.02;54.05176;95289.65;;;;
2022/04/18 03:57:47;;;;;;;8.1;6.8;;;;;;;-1.02;54.05176;95289.65;;;;
2022/04/18 03:58:48;;;;;;;8.1;6.8;;;;;;;-1.02;54.05176;95289.65;;;;
2022/04/18 03:59:48;;;;;;;8.1;6.8;;;;;;;-1.02;54.05176;95289.65;;;;
2022/04/18 04:00:49;;;;;;;8.1;6.8;;;;;;;-1.02;54.05176;95289.65;;;;
2022/04/18 04:01:49;;;;;;;8.1;6.8;;;;;;;-1.02;54.05176;95289.65;;;;
2022/04/18 04:02:50;;;;;;;8.1;6.8;;;;;;;-1.02;54.05176;95289.65;;;;
2022/04/18 04:03:50;;;;;;;8.1;6.8;;;;;;;-1.02;54.05176;95289.65;;;;
2022/04/18 04:04:51;;;;;;;8.1;6.8;;;;;;;-1.02;54.05176;95289.65;;;;
2022/04/18 04:05:52;;;;;;;8.1;6.8;;;;;;;-1.02;54.05176;95289.65;;;;
2022/04/18 04:06:52;;;;;;;8.249999;7.4;;;;;;;-1.07;54.47656;95291.92;;;;
2022/04/18 04:07:53;;;;;;;8.249999;7.4;;;;;;;-1.07;54.47656;95291.92;;;;
2022/04/18 04:08:53;;;;;;;8.249999;7.4;;;;;;;-1.07;54.47656;95291.92;;;;
2022/04/18 04:09:54;;;;;;;8.249999;7.4;;;;;;;-1.07;54.47656;95291.92;;;;
2022/04/18 04:10:54;;;;;;;8.249999;7.4;;;;;;;-1.07;54.47656;95291.92;;;;
2022/04/18 04:11:54;;;;;;;8.249999;7.4;;;;;;;-1.07;54.47656;95291.92;;;;
2022/04/18 04:12:55;;;;;;;8.249999;7.4;;;;;;;-1.07;54.47656;95291.92;;;;
2022/04/18 04:13:55;;;;;;;8.249999;7.4;;;;;;;-1.07;54.47656;95291.92;;;;
2022/04/18 04:14:56;;;;;;;8.249999;7.4;;;;;;;-1.07;54.47656;95291.92;;;;
2022/04/18 04:15:57;;;;;;;8.249999;7.4;;;;;;;-1.07;54.47656;95291.92;;;;
2022/04/18 04:16:58;;;;;;;8.550001;7.599999;;;;;;;-1.12;54.91895;95278.34;;;;
2022/04/18 04:17:58;;;;;;;8.550001;7.599999;;;;;;;-1.12;54.91895;95278.34;;;;
2022/04/18 04:18:59;;;;;;;8.550001;7.599999;;;;;;;-1.12;54.91895;95278.34;;;;
2022/04/18 04:20:00;;;;;;;8.550001;7.599999;;;;;;;-1.12;54.91895;95278.34;;;;
2022/04/18 04:21:00;;;;;;;8.550001;7.599999;;;;;;;-1.12;54.91895;95278.34;;;;
2022/04/18 04:22:01;;;;;;;8.550001;7.599999;;;;;;;-1.12;54.91895;95278.34;;;;
2022/04/18 04:23:01;;;;;;;8.550001;7.599999;;;;;;;-1.12;54.91895;95278.34;;;;
2022/04/18 04:24:03;;;;;;;8.550001;7.599999;;;;;;;-1.12;54.91895;95278.34;;;;
2022/04/18 04:25:04;;;;;;;8.550001;7.599999;;;;;;;-1.12;54.91895;95278.34;;;;
2022/04/18 04:26:04;;;;;;;8.550001;7.599999;;;;;;;-1.12;54.91895;95278.34;;;;
2022/04/18 04:27:05;;;;;;;8.550001;7.599999;;;;;;;-1.12;54.91895;95278.34;;;;
2022/04/18 04:28:06;;;;;;;9.749998;7.95;;;;;;;-1.12;55.35938;95283.71;;;;
2022/04/18 04:29:06;;;;;;;9.749998;7.95;;;;;;;-1.12;55.35938;95283.71;;;;
2022/04/18 04:30:07;;;;;;;9.749998;7.95;;;;;;;-1.12;55.35938;95283.71;;;;
2022/04/18 04:31:08;;;;;;;9.749998;7.95;;;;;;;-1.12;55.35938;95283.71;;;;
2022/04/18 04:32:09;;;;;;;9.749998;7.95;;;;;;;-1.12;55.35938;95283.71;;;;
2022/04/18 04:33:09;;;;;;;9.749998;7.95;;;;;;;-1.12;55.35938;95283.71;;;;
2022/04/18 04:34:10;;;;;;;9.749998;7.95;;;;;;;-1.12;55.35938;95283.71;;;;
2022/04/18 04:35:11;;;;;;;9.749998;7.95;;;;;;;-1.12;55.35938;95283.71;;;;
2022/04/18 04:36:12;;;;;;;9.749998;7.95;;;;;;;-1.12;55.35938;95283.71;;;;
2022/04/18 04:37:12;;;;;;;9.749998;7.95;;;;;;;-1.12;55.35938;95283.71;;;;
2022/04/18 04:38:13;;;;;;;9.349998;7.849999;;;;;;;-1.06;55.65039;95273.69;;;;
2022/04/18 04:39:13;;;;;;;9.349998;7.849999;;;;;;;-1.06;55.65039;95273.69;;;;
2022/04/18 04:40:14;;;;;;;9.349998;7.849999;;;;;;;-1.06;55.65039;95273.69;;;;
2022/04/18 04:41:15;;;;;;;9.349998;7.849999;;;;;;;-1.06;55.65039;95273.69;;;;
2022/04/18 04:42:17;;;;;;;9.349998;7.849999;;;;;;;-1.06;55.65039;95273.69;;;;
2022/04/18 04:43:18;;;;;;;9.349998;7.849999;;;;;;;-1.06;55.65039;95273.69;;;;
2022/04/18 04:44:18;;;;;;;9.349998;7.849999;;;;;;;-1.06;55.65039;95273.69;;;;
2022/04/18 04:45:19;;;;;;;9.349998;7.849999;;;;;;;-1.06;55.65039;95273.69;;;;
2022/04/18 04:46:19;;;;;;;9.349998;7.849999;;;;;;;-1.06;55.65039;95273.69;;;;
2022/04/18 04:47:20;;;;;;;9.349998;7.849999;;;;;;;-1.06;55.65039;95273.69;;;;
2022/04/18 04:48:20;;;;;;;9.349998;7.849999;;;;;;;-1.06;55.65039;95273.69;;;;
2022/04/18 04:49:21;;;;;;;8.599999;7.700001;;;;;;;-1.03;56.02051;95284.88;;;;
2022/04/18 04:50:21;;;;;;;8.599999;7.700001;;;;;;;-1.03;56.02051;95284.88;;;;
2022/04/18 04:51:22;;;;;;;8.599999;7.700001;;;;;;;-1.03;56.02051;95284.88;;;;
2022/04/18 04:52:22;;;;;;;8.599999;7.700001;;;;;;;-1.03;56.02051;95284.88;;;;
2022/04/18 04:53:23;;;;;;;8.599999;7.700001;;;;;;;-1.03;56.02051;95284.88;;;;
2022/04/18 04:54:24;;;;;;;8.599999;7.700001;;;;;;;-1.03;56.02051;95284.88;;;;
2022/04/18 04:55:24;;;;;;;8.599999;7.700001;;;;;;;-1.03;56.02051;95284.88;;;;
2022/04/18 04:56:25;;;;;;;8.599999;7.700001;;;;;;;-1.03;56.02051;95284.88;;;;
2022/04/18 04:57:26;;;;;;;8.599999;7.700001;;;;;;;-1.03;56.02051;95284.88;;;;
2022/04/18 04:58:27;;;;;;;8.599999;7.700001;;;;;;;-1.03;56.02051;95284.88;;;;
2022/04/18 04:59:27;;;;;;;8.599999;7.700001;;;;;;;-1.03;56.02051;95284.88;;;;
2022/04/18 05:00:28;;;;;;;9.449999;8.200001;;;;;;;-0.97;56.31055;95282.45;;;;
2022/04/18 05:01:29;;;;;;;9.449999;8.200001;;;;;;;-0.97;56.31055;95282.45;;;;
2022/04/18 05:02:29;;;;;;;9.449999;8.200001;;;;;;;-0.97;56.31055;95282.45;;;;
2022/04/18 05:03:30;;;;;;;9.449999;8.200001;;;;;;;-0.97;56.31055;95282.45;;;;
2022/04/18 05:04:30;;;;;;;9.449999;8.200001;;;;;;;-0.97;56.31055;95282.45;;;;
2022/04/18 05:05:32;;;;;;;9.449999;8.200001;;;;;;;-0.97;56.31055;95282.45;;;;
2022/04/18 05:06:32;;;;;;;9.449999;8.200001;;;;;;;-0.97;56.31055;95282.45;;;;
2022/04/18 05:07:33;;;;;;;9.449999;8.200001;;;;;;;-0.97;56.31055;95282.45;;;;
2022/04/18 05:08:33;;;;;;;9.449999;8.200001;;;;;;;-0.97;56.31055;95282.45;;;;
2022/04/18 05:09:34;;;;;;;9.449999;8.200001;;;;;;;-0.97;56.31055;95282.45;;;;
2022/04/18 05:10:34;;;;;;;9.200001;8.1;;;;;;;-0.77;56.55762;95285.1;;;;
2022/04/18 05:11:35;;;;;;;9.200001;8.1;;;;;;;-0.77;56.55762;95285.1;;;;
2022/04/18 05:12:36;;;;;;;9.200001;8.1;;;;;;;-0.77;56.55762;95285.1;;;;
2022/04/18 05:13:36;;;;;;;9.200001;8.1;;;;;;;-0.77;56.55762;95285.1;;;;
2022/04/18 05:14:37;;;;;;;9.200001;8.1;;;;;;;-0.77;56.55762;95285.1;;;;
2022/04/18 05:15:37;;;;;;;9.200001;8.1;;;;;;;-0.77;56.55762;95285.1;;;;
2022/04/18 05:16:39;;;;;;;9.200001;8.1;;;;;;;-0.77;56.55762;95285.1;;;;
2022/04/18 05:17:40;;;;;;;9.200001;8.1;;;;;;;-0.77;56.55762;95285.1;;;;
2022/04/18 05:18:40;;;;;;;9.200001;8.1;;;;;;;-0.77;56.55762;95285.1;;;;
2022/04/18 05:19:41;;;;;;;9.200001;8.1;;;;;;;-0.77;56.55762;95285.1;;;;
2022/04/18 05:20:42;;;;;;;9.200001;8.1;;;;;;;-0.77;56.55762;95285.1;;;;
2022/04/18 05:21:44;;;;;;;8.799999;6.749999;;;;;;;-0.56;56.7627;95287.24;;;;
2022/04/18 05:22:44;;;;;;;8.799999;6.749999;;;;;;;-0.56;56.7627;95287.24;;;;
2022/04/18 05:23:45;;;;;;;8.799999;6.749999;;;;;;;-0.56;56.7627;95287.24;;;;
2022/04/18 05:24:45;;;;;;;8.799999;6.749999;;;;;;;-0.56;56.7627;95287.24;;;;
2022/04/18 05:25:46;;;;;;;8.799999;6.749999;;;;;;;-0.56;56.7627;95287.24;;;;
2022/04/18 05:26:46;;;;;;;8.799999;6.749999;;;;;;;-0.56;56.7627;95287.24;;;;
2022/04/18 05:27:47;;;;;;;8.799999;6.749999;;;;;;;-0.56;56.7627;95287.24;;;;
2022/04/18 05:28:47;;;;;;;8.799999;6.749999;;;;;;;-0.56;56.7627;95287.24;;;;
2022/04/18 05:29:48;;;;;;;8.799999;6.749999;;;;;;;-0.56;56.7627;95287.24;;;;
2022/04/18 05:30:48;;;;;;;8.799999;6.749999;;;;;;;-0.56;56.7627;95287.24;;;;
2022/04/18 05:31:48;;;;;;;9.3;7.050002;;;;;;;-0.14;56.16895;95288.2;;;;
2022/04/18 05:32:49;;;;;;;9.3;7.050002;;;;;;;-0.14;56.16895;95288.2;;;;
2022/04/18 05:33:49;;;;;;;9.3;7.050002;;;;;;;-0.14;56.16895;95288.2;;;;
2022/04/18 05:34:50;;;;;;;9.3;7.050002;;;;;;;-0.14;56.16895;95288.2;;;;
2022/04/18 05:35:50;;;;;;;9.3;7.050002;;;;;;;-0.14;56.16895;95288.2;;;;
2022/04/18 05:36:52;;;;;;;9.3;7.050002;;;;;;;-0.14;56.16895;95288.2;;;;
2022/04/18 05:37:52;;;;;;;9.3;7.050002;;;;;;;-0.14;56.16895;95288.2;;;;
2022/04/18 05:38:53;;;;;;;9.3;7.050002;;;;;;;-0.14;56.16895;95288.2;;;;
2022/04/18 05:39:53;;;;;;;9.3;7.050002;;;;;;;-0.14;56.16895;95288.2;;;;
2022/04/18 05:40:54;;;;;;;9.3;7.050002;;;;;;;-0.14;56.16895;95288.2;;;;
2022/04/18 05:41:56;;;;;;;9.3;7.050002;;;;;;;-0.14;56.16895;95288.2;;;;
2022/04/18 05:42:56;;;;;;;9.449999;7.299999;;;;;;;0.53;55.5957;95304.02;;;;
2022/04/18 05:43:57;;;;;;;9.449999;7.299999;;;;;;;0.53;55.5957;95304.02;;;;
2022/04/18 05:44:58;;;;;;;9.449999;7.299999;;;;;;;0.53;55.5957;95304.02;;;;